Kezdőlap
METAR-TAF:

METAR-TAF

Repülőterek :

Kangiqsualujjuaq, Québec, Kanada

földrajzi szélesség: 58-43N, földrajzi hosszúság: 065-59W, magasság: 60 m

Jelenlegi meteorológiai megfigyelések

A jelentés 5 órával és 41 perccel ezelõtt készült, 21:00 UTC
Nyugati szél 8 kt
Hőmérséklet -11°C
Páratartalom 66%
Légköri nyomás 1028 hPa
Látótávolság: 24.1 km
Szakadozott felhőzet 2300 lábon
Szakadozott felhőzet 3100 lábon

METAR: CYLU 232100Z 28008KT 15SM BKN023 BKN031 M11/M16 A3035 RMK SC5SC2 LAST STFD OBS/NEXT 241200UTC SLP285

Idő: 22:41 (02:41 UTC)


TAF: hiányzik

Meteorológiai megfigyelések és előrejelzések több, mint 4000 repülőtéren (METAR és TAF jelentéseket).

A térképen piros és sárga pontok jelzik az elérhető meteorológiai állomásokat.

Mozgassa az egeret a pont fölött, hogy megjelenjen az állomás neve.

Azután kattintson az időjárási megfigyelések és előrejelzések megtekintéséhez.

A térkép megváltoztatása: kattintson a fekete keresztel jelölt zöld gombra ráközelítéshez, a vonallal jelölt zöld gombra távolításhoz, vagy a zöld nyilakra a szomszédos térképek eléréséhez.


METAR-TAF: